createdAt,value
2018-02-14T00:00:51.880Z,13.95
2018-02-14T00:01:55.148Z,14.60
2018-02-14T00:02:57.637Z,13.55
2018-02-14T00:04:00.914Z,14.07
2018-02-14T00:05:03.422Z,14.87
2018-02-14T00:06:06.618Z,14.52
2018-02-14T00:07:09.133Z,14.95
2018-02-14T00:08:11.677Z,14.70
2018-02-14T00:09:15.654Z,14.75
2018-02-14T00:10:18.929Z,14.35
2018-02-14T00:11:21.406Z,14.93
2018-02-14T00:12:23.879Z,15.82
2018-02-14T00:13:26.359Z,13.93
2018-02-14T00:14:29.608Z,15.25
2018-02-14T00:15:32.094Z,14.73
2018-02-14T00:16:34.576Z,15.13
2018-02-14T00:17:37.837Z,14.00
2018-02-14T00:18:40.325Z,14.60
2018-02-14T00:19:42.834Z,14.38
2018-02-14T00:20:45.314Z,12.85
2018-02-14T00:21:47.814Z,14.70
2018-02-14T00:22:51.154Z,14.52
2018-02-14T00:23:53.614Z,14.35
2018-02-14T00:24:56.110Z,14.65
2018-02-14T00:25:59.394Z,13.85
2018-02-14T00:27:01.869Z,14.30
2018-02-14T00:28:05.204Z,15.18
2018-02-14T00:29:07.690Z,13.73
2018-02-14T00:30:10.177Z,14.18
2018-02-14T00:31:13.438Z,14.23
2018-02-14T00:32:15.919Z,14.35
2018-02-14T00:33:19.909Z,15.18
2018-02-14T00:34:23.160Z,14.50
2018-02-14T00:35:25.641Z,14.13
2018-02-14T00:36:28.891Z,14.98
2018-02-14T00:37:31.560Z,15.00
2018-02-14T00:38:34.799Z,15.27
2018-02-14T00:39:37.282Z,13.62
2018-02-14T00:40:41.262Z,14.50
2018-02-14T00:41:44.493Z,13.40
2018-02-14T00:42:47.764Z,13.75
2018-02-14T00:43:50.243Z,14.02
2018-02-14T00:44:52.887Z,14.52
2018-02-14T00:45:56.137Z,14.87
2018-02-14T00:46:59.415Z,14.38
2018-02-14T00:48:01.898Z,14.32
2018-02-14T00:49:04.839Z,14.48
2018-02-14T00:50:08.107Z,15.40
2018-02-14T00:51:10.575Z,14.52
2018-02-14T00:52:13.041Z,14.20
2018-02-14T00:53:16.538Z,14.65
2018-02-14T00:54:18.997Z,14.40
2018-02-14T00:55:22.292Z,16.00
2018-02-14T00:56:24.813Z,13.90
2018-02-14T00:57:27.289Z,14.27
2018-02-14T00:58:30.559Z,15.63
2018-02-14T00:59:33.818Z,14.98
2018-02-14T01:00:36.382Z,16.12
2018-02-14T01:01:38.838Z,14.40
2018-02-14T01:02:42.108Z,13.60
2018-02-14T01:03:44.577Z,13.80
2018-02-14T01:04:47.069Z,14.10
2018-02-14T01:05:49.539Z,14.40
2018-02-14T01:06:52.872Z,15.00
2018-02-14T01:07:55.444Z,14.90
2018-02-14T01:08:58.674Z,13.90
2018-02-14T01:10:01.939Z,14.80
2018-02-14T01:11:04.418Z,13.02
2018-02-14T01:12:08.412Z,14.35
2018-02-14T01:13:11.625Z,14.55
2018-02-14T01:14:14.109Z,15.20
2018-02-14T01:15:16.575Z,13.55
2018-02-14T01:16:19.058Z,13.70
2018-02-14T01:17:21.530Z,13.93
2018-02-14T01:18:23.999Z,13.77
2018-02-14T01:19:26.559Z,12.95
2018-02-14T01:20:34.860Z,13.45
2018-02-14T01:21:37.353Z,14.85
2018-02-14T01:22:39.814Z,14.05
2018-02-14T01:23:43.105Z,13.60
2018-02-14T01:24:45.711Z,13.82
2018-02-14T01:25:48.220Z,14.02
2018-02-14T01:26:50.669Z,14.27
2018-02-14T01:27:53.171Z,14.87
2018-02-14T01:28:55.674Z,14.57
2018-02-14T01:29:58.924Z,15.45
2018-02-14T01:31:01.401Z,14.52
2018-02-14T01:32:03.877Z,15.88
2018-02-14T01:33:07.116Z,14.10
2018-02-14T01:34:10.502Z,15.57
2018-02-14T01:35:13.081Z,16.33
2018-02-14T01:36:16.385Z,16.37
2018-02-14T01:37:18.845Z,14.45
2018-02-14T01:38:22.098Z,15.32
2018-02-14T01:39:25.342Z,14.68
2018-02-14T01:40:28.572Z,15.85
2018-02-14T01:41:31.831Z,16.02
2018-02-14T01:42:34.312Z,15.10
2018-02-14T01:43:36.780Z,15.98
2018-02-14T01:44:40.022Z,15.60
2018-02-14T01:45:42.548Z,16.25
2018-02-14T01:46:45.098Z,16.30
2018-02-14T01:47:47.582Z,16.15
2018-02-14T01:48:50.070Z,15.73
2018-02-14T01:49:52.557Z,16.05
2018-02-14T01:50:55.033Z,15.15
2018-02-14T02:36:24.541Z,12.75
2018-02-14T02:37:27.013Z,15.80
2018-02-14T02:38:29.478Z,18.15
2018-02-14T02:39:43.790Z,17.42
2018-02-14T02:40:46.255Z,17.55
2018-02-14T02:41:49.518Z,18.67
2018-02-14T02:42:52.763Z,17.70
2018-02-14T02:43:56.012Z,18.83
2018-02-14T02:44:58.494Z,18.33
2018-02-14T02:46:00.955Z,17.50
2018-02-14T02:47:04.189Z,19.67
2018-02-14T02:48:07.454Z,18.85
2018-02-14T02:49:09.921Z,18.10
2018-02-14T02:50:12.402Z,18.37
2018-02-14T02:51:14.895Z,17.52
2018-02-14T02:52:18.199Z,16.50
2018-02-14T02:53:20.695Z,17.77
2018-02-14T02:54:23.168Z,17.15
2018-02-14T02:55:25.640Z,17.87
2018-02-14T02:56:28.903Z,16.67
2018-02-14T02:57:31.385Z,16.50
2018-02-14T02:58:33.896Z,16.48
2018-02-14T02:59:36.709Z,16.58
2018-02-14T03:00:39.282Z,16.65
2018-02-14T03:01:42.520Z,15.57
2018-02-14T03:02:45.752Z,16.65
2018-02-14T03:03:48.210Z,17.70
2018-02-14T03:04:50.723Z,16.55
2018-02-14T03:05:53.970Z,16.50
2018-02-14T03:06:57.207Z,15.93
2018-02-14T03:08:00.449Z,15.75
2018-02-14T03:09:03.674Z,16.85
2018-02-14T03:10:06.956Z,16.35
2018-02-14T03:11:09.460Z,16.15
2018-02-14T03:12:12.681Z,15.40
2018-02-14T03:13:15.962Z,15.52
2018-02-14T03:14:18.450Z,14.80
2018-02-14T03:15:21.717Z,15.80
2018-02-14T03:16:24.185Z,15.45
2018-02-14T03:17:26.674Z,16.50
2018-02-14T03:18:29.166Z,16.00
2018-02-14T03:19:31.721Z,15.77
2018-02-14T03:20:34.202Z,15.30
2018-02-14T03:21:36.680Z,15.70
2018-02-14T03:22:39.250Z,16.20
2018-02-14T03:23:41.716Z,15.38
2018-02-14T03:24:44.951Z,16.00
2018-02-14T03:25:48.190Z,16.17
2018-02-14T03:26:52.252Z,15.55
2018-02-14T03:27:55.509Z,16.35
2018-02-14T03:28:57.985Z,15.80
2018-02-14T03:30:00.473Z,17.30
2018-02-14T03:31:02.955Z,16.65
2018-02-14T03:32:05.428Z,16.15
2018-02-14T03:33:07.947Z,16.60
2018-02-14T03:34:10.515Z,15.70
2018-02-14T03:35:13.128Z,15.55
2018-02-14T03:36:15.596Z,16.02
2018-02-14T03:37:18.857Z,14.80
2018-02-14T03:38:22.214Z,13.60
2018-02-14T03:39:24.711Z,14.70
2018-02-14T03:40:27.953Z,14.90
2018-02-14T03:41:31.215Z,15.07
2018-02-14T03:42:34.458Z,14.63
2018-02-14T03:43:36.942Z,15.43
2018-02-14T03:44:40.182Z,14.00
2018-02-14T03:45:42.666Z,14.75
2018-02-14T03:46:45.171Z,16.05
2018-02-14T03:47:48.524Z,15.45
2018-02-14T03:48:51.036Z,14.38
2018-02-14T03:49:54.262Z,16.45
2018-02-14T03:50:56.723Z,16.70
2018-02-14T03:51:59.941Z,15.18
2018-02-14T03:53:03.199Z,15.65
2018-02-14T03:54:05.687Z,14.40
2018-02-14T03:55:09.674Z,16.80
2018-02-14T03:56:12.929Z,15.05
2018-02-14T03:57:15.403Z,15.85
2018-02-14T03:58:18.002Z,16.87
2018-02-14T03:59:20.501Z,15.07
2018-02-14T04:00:23.068Z,16.48
2018-02-14T04:01:25.525Z,16.90
2018-02-14T04:02:28.894Z,15.60
2018-02-14T04:03:32.120Z,16.60
2018-02-14T04:04:35.361Z,17.42
2018-02-14T04:05:38.597Z,17.25
2018-02-14T04:06:41.143Z,15.38
2018-02-14T04:07:44.369Z,16.77
2018-02-14T04:08:47.610Z,16.80
2018-02-14T04:09:50.872Z,15.65
2018-02-14T04:10:54.109Z,16.05
2018-02-14T04:11:57.370Z,15.88
2018-02-14T04:12:59.880Z,16.70
2018-02-14T04:14:03.108Z,16.48
2018-02-14T04:15:06.378Z,17.30
2018-02-14T04:16:08.878Z,16.15
2018-02-14T04:17:12.116Z,16.10
2018-02-14T04:18:16.128Z,15.73
2018-02-14T04:19:18.603Z,16.00
2018-02-14T04:20:21.975Z,15.85
2018-02-14T04:21:24.493Z,15.57
2018-02-14T04:22:26.968Z,15.88
2018-02-14T04:23:29.431Z,16.02
2018-02-14T04:24:32.673Z,15.05
2018-02-14T04:25:36.626Z,16.42
2018-02-14T04:26:40.006Z,16.05
2018-02-14T04:27:42.493Z,15.70
2018-02-14T04:28:44.982Z,16.23
2018-02-14T04:29:47.445Z,17.20
2018-02-14T04:30:50.678Z,17.62
2018-02-14T04:31:53.180Z,16.85
2018-02-14T04:32:55.658Z,17.33
2018-02-14T04:33:58.138Z,17.25
2018-02-14T04:35:00.612Z,17.60
2018-02-14T04:36:03.093Z,18.65
2018-02-14T04:37:05.594Z,17.80
2018-02-14T04:38:08.093Z,16.67
2018-02-14T04:39:10.620Z,17.05
2018-02-14T04:40:13.086Z,17.75
2018-02-14T04:41:15.573Z,16.48
2018-02-14T04:42:18.090Z,18.80
2018-02-14T04:43:20.563Z,18.00
2018-02-14T04:44:23.034Z,16.10
2018-02-14T04:45:25.530Z,16.25
2018-02-14T04:46:28.810Z,18.37
2018-02-14T04:47:31.278Z,17.70
2018-02-14T04:48:33.753Z,18.40
2018-02-14T04:49:36.326Z,17.33
2018-02-14T04:50:38.826Z,17.00
2018-02-14T04:51:41.329Z,17.12
2018-02-14T04:52:43.819Z,19.08
2018-02-14T04:53:46.303Z,17.87
2018-02-14T04:54:48.767Z,18.85
2018-02-14T04:55:52.018Z,20.02
2018-02-14T04:56:54.561Z,20.62
2018-02-14T04:57:57.804Z,21.80
2018-02-14T04:59:01.033Z,21.77
2018-02-14T05:00:05.035Z,20.62
2018-02-14T05:01:08.350Z,22.02
2018-02-14T05:02:11.600Z,20.60
2018-02-14T05:03:14.175Z,21.15
2018-02-14T05:04:16.639Z,20.90
2018-02-14T05:05:19.864Z,20.27
2018-02-14T05:06:22.339Z,21.40
2018-02-14T05:07:24.842Z,21.35
2018-02-14T05:08:28.085Z,21.87
2018-02-14T05:09:31.313Z,21.67
2018-02-14T05:10:34.577Z,22.10
2018-02-14T05:11:37.074Z,19.50
2018-02-14T05:12:39.724Z,20.27
2018-02-14T05:13:42.186Z,20.27
2018-02-14T05:14:44.655Z,19.58
2018-02-14T05:15:47.968Z,20.27
2018-02-14T05:16:50.433Z,19.60
2018-02-14T05:17:53.689Z,18.90
2018-02-14T05:18:56.165Z,18.87
2018-02-14T05:19:58.646Z,19.42
2018-02-14T05:21:01.201Z,19.00
2018-02-14T05:22:03.686Z,18.42
2018-02-14T05:23:06.164Z,17.92
2018-02-14T05:24:08.653Z,19.12
2018-02-14T05:25:11.164Z,19.12
2018-02-14T05:26:13.629Z,19.75
2018-02-14T05:27:16.122Z,18.35
2018-02-14T05:28:18.664Z,18.65
2018-02-14T05:29:21.156Z,17.75
2018-02-14T05:30:24.425Z,19.05
2018-02-14T05:31:26.889Z,18.60
2018-02-14T05:32:29.369Z,18.50
2018-02-14T05:33:31.903Z,18.40
2018-02-14T05:34:34.365Z,17.90
2018-02-14T05:35:36.918Z,21.02
2018-02-14T05:36:40.150Z,19.42
2018-02-14T05:37:43.349Z,18.20
2018-02-14T05:38:46.635Z,19.65
2018-02-14T05:39:49.092Z,18.85
2018-02-14T05:40:51.606Z,18.48
2018-02-14T05:41:54.844Z,18.50
2018-02-14T05:42:58.087Z,20.27
2018-02-14T05:44:01.332Z,19.12
2018-02-14T05:45:04.587Z,18.73
2018-02-14T05:46:07.064Z,19.50
2018-02-14T05:47:11.184Z,18.92
2018-02-14T05:48:13.687Z,18.58
2018-02-14T05:49:16.966Z,18.73
2018-02-14T05:50:19.468Z,19.75
2018-02-14T05:51:21.968Z,18.77
2018-02-14T05:52:25.224Z,18.15
2018-02-14T05:53:28.462Z,18.50
2018-02-14T05:54:31.695Z,19.30
2018-02-14T05:55:34.957Z,18.62
2018-02-14T05:56:37.430Z,19.08
2018-02-14T05:57:40.009Z,19.05
2018-02-14T05:58:42.498Z,18.45
2018-02-14T05:59:45.019Z,19.80
2018-02-14T06:00:47.477Z,20.52
2018-02-14T06:01:49.960Z,19.23
2018-02-14T06:02:52.467Z,19.90
2018-02-14T06:03:54.931Z,20.65
2018-02-14T06:04:57.490Z,18.85
2018-02-14T06:05:59.945Z,18.98
2018-02-14T06:07:02.429Z,19.48
2018-02-14T06:08:04.900Z,19.25
2018-02-14T06:09:07.502Z,18.37
2018-02-14T06:10:10.039Z,19.15
2018-02-14T06:11:12.515Z,19.12
2018-02-14T06:12:15.752Z,19.60
2018-02-14T06:13:18.220Z,18.55
2018-02-14T06:14:20.715Z,19.35
2018-02-14T06:15:24.019Z,18.60
2018-02-14T06:16:26.477Z,18.05
2018-02-14T06:17:29.020Z,19.02
2018-02-14T06:18:32.264Z,19.90
2018-02-14T06:19:34.782Z,19.27
2018-02-14T06:20:38.079Z,19.17
2018-02-14T06:21:40.543Z,19.70
2018-02-14T06:22:43.869Z,20.42
2018-02-14T06:23:47.116Z,19.15
2018-02-14T06:24:50.379Z,20.75
2018-02-14T06:25:53.679Z,19.08
2018-02-14T06:26:56.543Z,19.23
2018-02-14T06:28:00.066Z,19.62
2018-02-14T06:29:02.538Z,20.83
2018-02-14T06:30:05.027Z,20.35
2018-02-14T06:31:07.543Z,19.65
2018-02-14T06:32:10.023Z,19.50
2018-02-14T06:33:12.486Z,18.75
2018-02-14T06:34:14.967Z,19.33
2018-02-14T06:35:17.521Z,20.80
2018-02-14T06:36:20.032Z,20.27
2018-02-14T06:37:22.496Z,20.08
2018-02-14T06:38:24.997Z,19.15
2018-02-14T06:39:27.466Z,20.73
2018-02-14T06:40:30.695Z,19.90
2018-02-14T06:41:33.187Z,20.42
2018-02-14T06:42:35.640Z,20.35
2018-02-14T06:43:38.206Z,20.45
2018-02-14T06:44:40.741Z,19.15
2018-02-14T06:45:43.218Z,19.75
2018-02-14T06:46:45.748Z,21.02
2018-02-14T06:47:48.208Z,19.42
2018-02-14T06:48:51.449Z,19.65
2018-02-14T06:49:53.967Z,19.75
2018-02-14T06:50:56.459Z,18.95
2018-02-14T06:51:58.932Z,19.65
2018-02-14T06:53:01.655Z,19.98
2018-02-14T06:54:04.869Z,19.25
2018-02-14T06:55:08.149Z,20.42
2018-02-14T06:56:10.633Z,19.80
2018-02-14T06:57:13.192Z,18.12
2018-02-14T06:58:15.747Z,19.80
2018-02-14T06:59:18.219Z,21.40
2018-02-14T07:00:20.706Z,19.35
2018-02-14T07:01:23.173Z,19.67
2018-02-14T07:02:26.437Z,19.37
2018-02-14T07:03:28.914Z,19.77
2018-02-14T07:04:32.178Z,20.08
2018-02-14T07:05:35.447Z,19.87
2018-02-14T07:06:38.686Z,17.85
2018-02-14T07:07:41.949Z,19.15
2018-02-14T07:08:44.422Z,18.85
2018-02-14T07:09:46.903Z,20.17
2018-02-14T07:10:49.469Z,20.30
2018-02-14T07:11:52.403Z,20.20
2018-02-14T07:12:54.916Z,19.50
2018-02-14T07:13:57.394Z,18.85
2018-02-14T07:14:59.922Z,19.42
2018-02-14T07:16:02.501Z,19.33
2018-02-14T07:17:04.989Z,19.77
2018-02-14T07:18:07.484Z,19.20
2018-02-14T07:19:10.713Z,18.95
2018-02-14T07:20:13.988Z,19.95
2018-02-14T07:21:16.457Z,19.73
2018-02-14T07:22:18.945Z,20.77
2018-02-14T07:23:27.202Z,19.48
2018-02-14T07:24:29.701Z,19.27
2018-02-14T07:25:32.232Z,20.40
2018-02-14T07:26:34.718Z,20.50
2018-02-14T07:27:37.201Z,19.70
2018-02-14T07:28:39.664Z,20.73
2018-02-14T07:29:42.130Z,20.48
2018-02-14T07:30:45.389Z,20.55
2018-02-14T07:31:47.876Z,20.00
2018-02-14T07:32:51.110Z,20.20
2018-02-14T07:33:53.578Z,20.60
2018-02-14T07:34:56.043Z,19.40
2018-02-14T07:35:58.682Z,20.50
2018-02-14T07:37:01.151Z,20.52
2018-02-14T07:38:04.494Z,21.00
2018-02-14T07:39:06.996Z,19.90
2018-02-14T07:40:10.230Z,21.40
2018-02-14T07:41:12.905Z,21.52
2018-02-14T07:42:15.405Z,21.58
2018-02-14T07:43:18.685Z,21.60
2018-02-14T07:44:21.201Z,21.77
2018-02-14T07:45:24.051Z,21.30
2018-02-14T07:46:26.538Z,21.62
2018-02-14T07:47:29.765Z,21.25
2018-02-14T07:48:33.142Z,21.58
2018-02-14T07:49:35.725Z,22.48
2018-02-14T07:50:38.995Z,21.95
2018-02-14T07:51:42.256Z,23.08
2018-02-14T07:52:44.817Z,22.35
2018-02-14T07:53:47.425Z,21.70
2018-02-14T07:54:50.253Z,22.00
2018-02-14T07:55:52.718Z,22.05
2018-02-14T07:56:56.708Z,21.98
2018-02-14T07:57:59.952Z,21.27
2018-02-14T07:59:03.306Z,21.42
2018-02-14T08:00:05.785Z,22.62
2018-02-14T08:01:09.029Z,21.75
2018-02-14T08:02:11.511Z,22.50
2018-02-14T08:03:13.977Z,20.95
2018-02-14T08:04:16.478Z,22.17
2018-02-14T08:05:18.937Z,23.27
2018-02-14T08:06:22.218Z,22.70
2018-02-14T08:07:24.807Z,24.75
2018-02-14T08:08:27.357Z,23.25
2018-02-14T08:09:30.630Z,23.85
2018-02-14T08:10:33.110Z,23.08
2018-02-14T08:11:36.380Z,25.27
2018-02-14T08:12:38.869Z,23.98
2018-02-14T08:13:41.430Z,23.42
2018-02-14T08:14:43.915Z,23.67
2018-02-14T08:15:47.904Z,23.62
2018-02-14T08:16:51.275Z,23.25
2018-02-14T08:17:53.755Z,24.02
2018-02-14T08:18:56.570Z,22.25
2018-02-14T08:19:59.051Z,24.98
2018-02-14T08:21:01.524Z,23.92
2018-02-14T08:22:04.019Z,26.37
2018-02-14T08:23:06.477Z,22.08
2018-02-14T08:24:09.756Z,24.30
2018-02-14T08:25:12.213Z,23.77
2018-02-14T08:26:14.726Z,23.80
2018-02-14T08:27:17.232Z,24.08
2018-02-14T08:28:19.692Z,23.83
2018-02-14T08:29:22.187Z,25.05
2018-02-14T08:30:24.666Z,23.67
2018-02-14T08:31:27.259Z,22.90
2018-02-14T08:32:29.745Z,25.00
2018-02-14T08:33:32.980Z,23.83
2018-02-14T08:34:36.214Z,23.67
2018-02-14T08:35:38.673Z,23.90
2018-02-14T08:36:41.229Z,24.90
2018-02-14T08:37:43.732Z,23.67
2018-02-14T08:38:46.213Z,23.77
2018-02-14T08:39:48.682Z,24.20
2018-02-14T08:40:51.937Z,24.35
2018-02-14T08:41:54.436Z,24.90
2018-02-14T08:42:56.899Z,22.37
2018-02-14T08:43:59.414Z,23.67
2018-02-14T08:45:01.871Z,23.77
2018-02-14T08:46:04.856Z,22.83
2018-02-14T08:47:07.318Z,23.05
2018-02-14T08:48:09.785Z,22.67
2018-02-14T08:49:13.178Z,22.55
2018-02-14T08:50:15.648Z,20.45
2018-02-14T08:51:18.914Z,22.30
2018-02-14T08:52:21.372Z,21.27
2018-02-14T08:53:24.070Z,22.17
2018-02-14T08:54:26.606Z,21.52
2018-02-14T08:55:29.125Z,20.73
2018-02-14T08:56:32.043Z,23.60
2018-02-14T08:57:34.469Z,21.70
2018-02-14T08:58:37.699Z,20.70
2018-02-14T08:59:40.949Z,21.75
2018-02-14T09:00:44.314Z,21.55
2018-02-14T09:01:46.806Z,23.00
2018-02-14T09:02:49.265Z,22.05
2018-02-14T09:03:51.737Z,21.85
2018-02-14T09:04:54.202Z,21.12
2018-02-14T09:05:56.711Z,21.95
2018-02-14T09:06:59.977Z,21.12
2018-02-14T09:08:02.472Z,20.62
2018-02-14T09:09:04.936Z,21.65
2018-02-14T09:10:07.478Z,21.42
2018-02-14T09:11:09.967Z,22.80
2018-02-14T09:12:13.242Z,21.70
2018-02-14T09:13:15.713Z,22.65
2018-02-14T09:14:18.225Z,21.23
2018-02-14T09:15:20.669Z,22.15
2018-02-14T09:16:23.910Z,20.23
2018-02-14T09:17:26.446Z,21.58
2018-02-14T09:18:29.676Z,20.70
2018-02-14T09:19:32.146Z,21.10
2018-02-14T09:20:34.632Z,21.48
2018-02-14T09:21:37.929Z,21.45
2018-02-14T09:22:40.378Z,22.83
2018-02-14T09:23:42.856Z,22.00
2018-02-14T09:24:45.370Z,22.20
2018-02-14T09:25:47.861Z,20.33
2018-02-14T09:26:51.107Z,22.13
2018-02-14T09:27:53.571Z,22.13
2018-02-14T09:28:56.138Z,21.12
2018-02-14T09:29:58.726Z,22.15
2018-02-14T09:31:01.189Z,21.12
2018-02-14T09:32:03.662Z,19.40
2018-02-14T09:33:06.906Z,21.15
2018-02-14T09:34:09.450Z,22.80
2018-02-14T09:35:12.631Z,20.70
2018-02-14T09:36:15.094Z,20.60
2018-02-14T09:37:18.345Z,21.75
2018-02-14T09:38:20.822Z,21.62
2018-02-14T09:39:23.295Z,21.65
2018-02-14T09:40:25.772Z,21.92
2018-02-14T09:41:28.228Z,21.58
2018-02-14T09:42:31.498Z,21.77
2018-02-14T09:43:34.062Z,20.80
2018-02-14T09:44:36.521Z,22.60
2018-02-14T09:45:39.778Z,20.95
2018-02-14T09:46:43.069Z,21.73
2018-02-14T09:47:45.564Z,21.67
2018-02-14T09:48:48.037Z,22.65
2018-02-14T09:49:50.487Z,22.25
2018-02-14T09:50:52.977Z,22.42
2018-02-14T09:51:55.445Z,22.62
2018-02-14T09:52:58.510Z,21.90
2018-02-14T09:54:01.007Z,24.08
2018-02-14T09:55:03.552Z,22.65
2018-02-14T09:56:06.017Z,22.95
2018-02-14T09:57:08.502Z,23.02
2018-02-14T09:58:11.016Z,22.83
2018-02-14T09:59:13.504Z,24.98
2018-02-14T10:00:15.998Z,24.50
2018-02-14T10:01:18.456Z,26.17
2018-02-14T10:02:22.538Z,26.05
2018-02-14T10:03:25.788Z,25.35
2018-02-14T10:04:29.074Z,25.23
2018-02-14T10:05:31.549Z,27.77
2018-02-14T10:06:34.837Z,26.37
2018-02-14T10:07:37.266Z,27.77
2018-02-14T10:08:39.770Z,27.50
2018-02-14T10:09:42.256Z,26.52
2018-02-14T10:10:45.693Z,28.17
2018-02-14T10:11:49.057Z,27.70
2018-02-14T10:12:52.423Z,27.13
2018-02-14T10:13:55.002Z,27.10
2018-02-14T10:14:57.657Z,28.10
2018-02-14T10:16:00.910Z,26.75
2018-02-14T10:17:04.196Z,27.58
2018-02-14T10:18:06.702Z,26.05
2018-02-14T10:19:09.200Z,26.75
2018-02-14T10:20:12.460Z,26.75
2018-02-14T10:21:14.951Z,27.08
2018-02-14T10:22:18.173Z,26.67
2018-02-14T10:23:20.645Z,25.83
2018-02-14T10:24:23.191Z,25.65
2018-02-14T10:25:25.690Z,25.70
2018-02-14T10:26:28.162Z,25.65
2018-02-14T10:27:30.660Z,24.75
2018-02-14T10:28:33.175Z,25.15
2018-02-14T10:29:35.682Z,24.60
2018-02-14T10:30:38.909Z,26.17
2018-02-14T10:31:42.162Z,24.08
2018-02-14T10:32:45.437Z,25.40
2018-02-14T10:33:47.915Z,25.40
2018-02-14T10:34:50.373Z,25.42
2018-02-14T10:35:52.849Z,25.70
2018-02-14T10:36:55.424Z,25.25
2018-02-14T10:37:57.933Z,25.90
2018-02-14T10:39:01.198Z,25.67
2018-02-14T10:40:03.713Z,24.10
2018-02-14T10:41:06.937Z,24.83
2018-02-14T10:42:10.162Z,25.25
2018-02-14T10:43:12.627Z,26.33
2018-02-14T10:44:15.139Z,23.90
2018-02-14T10:45:18.375Z,24.20
2018-02-14T10:46:21.609Z,23.70
2018-02-14T10:47:24.075Z,22.80
2018-02-14T10:48:26.552Z,23.60
2018-02-14T10:49:29.055Z,23.62
2018-02-14T10:50:31.520Z,23.12
2018-02-14T10:51:34.874Z,23.12
2018-02-14T10:52:37.364Z,24.25
2018-02-14T10:53:39.858Z,23.80
2018-02-14T10:54:43.088Z,22.87
2018-02-14T10:55:45.596Z,24.37
2018-02-14T10:56:48.111Z,24.85
2018-02-14T10:57:51.357Z,24.55
2018-02-14T10:58:54.619Z,25.00
2018-02-14T10:59:57.082Z,24.52
2018-02-14T11:01:03.361Z,23.20
2018-02-14T11:02:10.774Z,22.98
2018-02-14T11:03:19.758Z,22.40
2018-02-14T11:04:22.226Z,21.37
2018-02-14T11:05:30.453Z,22.27
2018-02-14T11:06:35.926Z,21.45
2018-02-14T11:07:38.623Z,22.13
2018-02-14T11:08:41.121Z,21.17
2018-02-14T11:09:43.591Z,22.20
2018-02-14T11:10:46.839Z,22.37
2018-02-14T11:11:50.090Z,20.73
2018-02-14T11:12:52.565Z,20.40
2018-02-14T11:13:55.075Z,22.55
2018-02-14T11:14:57.517Z,20.67
2018-02-14T11:16:00.106Z,21.17
2018-02-14T11:17:02.939Z,22.23
2018-02-14T11:18:05.402Z,22.60
2018-02-14T11:19:07.886Z,22.00
2018-02-14T11:20:10.393Z,22.55
2018-02-14T11:21:13.655Z,20.30
2018-02-14T11:22:16.111Z,21.10
2018-02-14T11:23:18.691Z,19.92
2018-02-14T11:24:21.158Z,20.05
2018-02-14T11:25:23.739Z,19.35
2018-02-14T11:26:26.996Z,19.12
2018-02-14T11:27:29.589Z,19.62
2018-02-14T11:28:32.828Z,18.00
2018-02-14T11:29:35.378Z,18.45
2018-02-14T11:30:38.617Z,17.73
2018-02-14T11:31:41.880Z,18.50
2018-02-14T11:32:44.806Z,17.08
2018-02-14T11:33:47.344Z,16.92
2018-02-14T11:34:49.839Z,17.55
2018-02-14T11:35:53.063Z,16.70
2018-02-14T11:36:55.522Z,16.87
2018-02-14T11:37:58.012Z,17.85
2018-02-14T11:39:00.843Z,17.20
2018-02-14T11:40:03.328Z,16.35
2018-02-14T11:41:05.833Z,15.30
2018-02-14T11:42:08.304Z,14.65
2018-02-14T11:43:10.835Z,14.60
2018-02-14T11:44:13.286Z,13.38
2018-02-14T11:45:16.534Z,13.93
2018-02-14T11:46:19.754Z,14.23
2018-02-14T11:47:22.239Z,13.62
2018-02-14T11:48:24.756Z,14.85
2018-02-14T11:49:27.268Z,13.88
2018-02-14T11:50:30.506Z,15.75
2018-02-14T11:51:33.735Z,15.73
2018-02-14T11:52:37.028Z,15.65
2018-02-14T11:53:39.495Z,14.40
2018-02-14T11:54:41.957Z,15.82
2018-02-14T11:55:44.468Z,14.70
2018-02-14T11:56:46.925Z,14.98
2018-02-14T11:57:49.412Z,14.43
2018-02-14T11:58:52.757Z,14.75
2018-02-14T11:59:56.020Z,14.13
2018-02-14T12:00:58.484Z,14.55
2018-02-14T12:02:00.970Z,15.63
2018-02-14T12:03:03.437Z,15.23
2018-02-14T12:04:06.005Z,15.70
2018-02-14T12:05:08.493Z,15.73
2018-02-14T12:06:11.055Z,15.63
2018-02-14T12:07:14.288Z,15.00
2018-02-14T12:08:17.555Z,14.90
2018-02-14T12:09:20.084Z,15.27
2018-02-14T12:10:22.563Z,15.30
2018-02-14T12:11:25.018Z,14.77
2018-02-14T12:12:27.473Z,16.08
2018-02-14T12:13:29.988Z,15.15
2018-02-14T12:14:32.498Z,14.85
2018-02-14T12:15:34.997Z,14.77
2018-02-14T12:16:37.493Z,16.08
2018-02-14T12:17:40.006Z,15.15
2018-02-14T12:18:42.531Z,15.48
2018-02-14T12:19:44.990Z,15.85
2018-02-14T12:20:47.464Z,16.62
2018-02-14T12:21:49.940Z,15.80
2018-02-14T12:22:52.434Z,17.08
2018-02-14T12:23:54.898Z,15.38
2018-02-14T12:24:58.235Z,15.57
2018-02-14T12:26:00.790Z,15.02
2018-02-14T12:27:04.135Z,14.40
2018-02-14T12:28:06.629Z,14.77
2018-02-14T12:29:09.158Z,13.62
2018-02-14T12:30:12.397Z,14.35
2018-02-14T12:31:14.854Z,13.40
2018-02-14T12:32:17.368Z,12.45
2018-02-14T12:33:20.605Z,11.95
2018-02-14T12:34:23.099Z,14.05
2018-02-14T12:35:26.192Z,12.90
2018-02-14T12:36:28.713Z,12.55
2018-02-14T12:37:31.282Z,13.45
2018-02-14T12:38:33.745Z,11.95
2018-02-14T12:39:37.020Z,12.57
2018-02-14T12:40:39.577Z,12.52
2018-02-14T12:41:42.055Z,13.10
2018-02-14T12:42:44.520Z,12.37
2018-02-14T12:43:46.983Z,12.70
2018-02-14T12:44:49.686Z,14.75
2018-02-14T12:45:52.174Z,14.45
2018-02-14T12:46:54.644Z,13.40
2018-02-14T12:47:57.109Z,13.30
2018-02-14T12:48:59.604Z,12.70
2018-02-14T12:50:02.080Z,13.10
2018-02-14T12:51:04.557Z,12.43
2018-02-14T12:52:07.039Z,12.07
2018-02-14T12:53:09.496Z,12.98
2018-02-14T12:54:11.967Z,12.35
2018-02-14T12:55:14.437Z,12.70
2018-02-14T12:56:16.938Z,11.80
2018-02-14T12:57:19.411Z,11.05
2018-02-14T12:58:22.660Z,12.60
2018-02-14T12:59:25.889Z,12.75
2018-02-14T13:00:28.345Z,12.02
2018-02-14T13:01:30.878Z,10.55
2018-02-14T13:02:34.116Z,11.00
2018-02-14T13:03:36.606Z,11.27
2018-02-14T13:04:39.057Z,11.88
2018-02-14T13:05:41.551Z,11.95
2018-02-14T13:06:44.054Z,11.05
2018-02-14T13:07:46.530Z,11.60
2018-02-14T13:08:49.774Z,11.12
2018-02-14T13:09:52.255Z,11.15
2018-02-14T13:10:54.738Z,12.70
2018-02-14T13:11:57.250Z,11.40
2018-02-14T13:13:00.478Z,12.30
2018-02-14T13:14:03.719Z,11.02
2018-02-14T13:15:06.988Z,11.35
2018-02-14T13:16:09.515Z,11.43
2018-02-14T13:17:12.033Z,11.27
2018-02-14T13:18:14.559Z,11.95
2018-02-14T13:19:17.032Z,11.30
2018-02-14T13:20:19.548Z,10.98
2018-02-14T13:21:22.019Z,10.38
2018-02-14T13:22:25.254Z,10.90
2018-02-14T13:23:28.491Z,11.20
2018-02-14T13:24:31.880Z,11.88
2018-02-14T13:25:34.345Z,11.25
2018-02-14T13:26:36.968Z,10.95
2018-02-14T13:27:39.427Z,11.43
2018-02-14T13:28:42.662Z,10.77
2018-02-14T13:29:45.929Z,10.82
2018-02-14T13:30:48.411Z,10.98
2018-02-14T13:31:50.872Z,10.52
2018-02-14T13:32:53.411Z,11.40
2018-02-14T13:33:55.941Z,10.38
2018-02-14T13:34:58.450Z,10.80
2018-02-14T13:36:00.953Z,11.27
2018-02-14T13:37:03.415Z,10.00
2018-02-14T13:38:05.896Z,9.75
2018-02-14T13:39:08.454Z,10.18
2018-02-14T13:40:10.967Z,10.30
2018-02-14T13:41:14.200Z,11.05
2018-02-14T13:42:17.440Z,9.90
2018-02-14T13:43:19.947Z,10.13
2018-02-14T13:44:22.523Z,9.93
2018-02-14T13:45:25.872Z,10.13
2018-02-14T13:46:28.379Z,10.30
2018-02-14T13:47:31.629Z,9.55
2018-02-14T13:48:34.112Z,10.52
2018-02-14T13:49:36.606Z,9.65
2018-02-14T13:50:39.140Z,9.75
2018-02-14T13:51:41.612Z,9.43
2018-02-14T13:52:44.875Z,9.75
2018-02-14T13:53:47.399Z,9.20
2018-02-14T13:54:49.920Z,9.13
2018-02-14T13:55:52.426Z,9.75
2018-02-14T13:56:54.971Z,8.82
2018-02-14T13:57:57.507Z,8.50
2018-02-14T13:59:00.026Z,8.75
2018-02-14T14:00:02.559Z,8.95
2018-02-14T14:01:05.036Z,8.18
2018-02-14T14:02:08.985Z,9.20
2018-02-14T14:03:11.552Z,8.50
2018-02-14T14:04:14.831Z,8.43
2018-02-14T14:05:17.295Z,9.35
2018-02-14T14:06:19.766Z,8.10
2018-02-14T14:07:22.769Z,8.02
2018-02-14T14:08:25.256Z,9.27
2018-02-14T14:09:27.759Z,7.72
2018-02-14T14:10:30.257Z,9.07
2018-02-14T14:11:33.488Z,8.55
2018-02-14T14:12:36.771Z,10.77
2018-02-14T14:13:39.285Z,11.30
2018-02-14T14:14:41.793Z,11.77